UAE55 OMDB-EDDL
Flight info
| Callsign | UAE55 |
|---|---|
| Flight time | N/A |
| Altitude | 34000 |
| Route | ANVIX R401 GIDIS G783 ELUDA DCT UKRAG DCT RIBOT/N0456F280 M550 MEVDO Y511 ITRUX/N0491F340 Y511 KITUB/N0496F360 Y511 PMA V10 PEGUR Z712 WEJ L677 CVO L617 TANSA DCT KOR/N0480F380 UL613 XANIS DCT DIMIS DCT EMKES DCT EDALA DCT KOMAR DCT PODET DCT SIMBA DCT TESDU DCT AMETU DCT EKSAK DCT ONUNE |
| Aircraft | A388/J-SADE2E3FGHIJ3J4J5M1RWXY/LB1D1 |
Departure
| Time | 2026-04-25 05:49 |
|---|---|
| Airport | Dubai International Airport (OMDB) |
Arrival
| Time | N/A |
|---|---|
| Airport | Düsseldorf Airport (EDDL) |
| Time | Latitude | Longitude | Altitude | Speed | Heading |
|---|---|---|---|---|---|
| 2026-04-25 04:50 | 25.25177 | 55.35403 | 30 ft | 0 kts | 31° |
| 2026-04-25 05:34 | 25.25172 | 55.35400 | 26 ft | 4 kts | 31° |
| 2026-04-25 05:34 | 25.25149 | 55.35384 | 28 ft | 4 kts | 31° |
| 2026-04-25 05:35 | 25.25125 | 55.35369 | 32 ft | 4 kts | 31° |
| 2026-04-25 05:35 | 25.25104 | 55.35354 | 32 ft | 2 kts | 31° |
| 2026-04-25 05:35 | 25.25082 | 55.35342 | 32 ft | 4 kts | 14° |
| 2026-04-25 05:35 | 25.25056 | 55.35340 | 32 ft | 4 kts | 347° |
| 2026-04-25 05:36 | 25.25032 | 55.35351 | 32 ft | 4 kts | 320° |
| 2026-04-25 05:36 | 25.25014 | 55.35372 | 32 ft | 4 kts | 304° |
| 2026-04-25 05:36 | 25.25000 | 55.35398 | 32 ft | 4 kts | 300° |
| 2026-04-25 05:36 | 25.24996 | 55.35405 | 32 ft | 1 kts | 302° |
| 2026-04-25 05:41 | 25.24998 | 55.35401 | 26 ft | 2 kts | 302° |
| 2026-04-25 05:42 | 25.25013 | 55.35375 | 29 ft | 6 kts | 302° |
| 2026-04-25 05:42 | 25.25040 | 55.35326 | 29 ft | 9 kts | 302° |
| 2026-04-25 05:42 | 25.25079 | 55.35259 | 31 ft | 11 kts | 306° |
| 2026-04-25 05:42 | 25.25131 | 55.35183 | 27 ft | 13 kts | 308° |
| 2026-04-25 05:43 | 25.25186 | 55.35096 | 29 ft | 15 kts | 301° |
| 2026-04-25 05:43 | 25.25241 | 55.34995 | 28 ft | 16 kts | 301° |
| 2026-04-25 05:43 | 25.25303 | 55.34889 | 29 ft | 17 kts | 309° |
| 2026-04-25 05:43 | 25.25398 | 55.34820 | 31 ft | 17 kts | 348° |
| 2026-04-25 05:44 | 25.25511 | 55.34836 | 31 ft | 17 kts | 26° |
| 2026-04-25 05:44 | 25.25614 | 55.34903 | 29 ft | 18 kts | 31° |
| 2026-04-25 05:44 | 25.25718 | 55.34972 | 30 ft | 14 kts | 31° |
| 2026-04-25 05:44 | 25.25786 | 55.35027 | 30 ft | 10 kts | 63° |
| 2026-04-25 05:45 | 25.25773 | 55.35101 | 28 ft | 12 kts | 121° |
| 2026-04-25 05:45 | 25.25724 | 55.35188 | 30 ft | 15 kts | 122° |
| 2026-04-25 05:45 | 25.25664 | 55.35292 | 30 ft | 17 kts | 122° |
| 2026-04-25 05:45 | 25.25597 | 55.35412 | 30 ft | 19 kts | 121° |
| 2026-04-25 05:46 | 25.25524 | 55.35542 | 29 ft | 21 kts | 122° |
| 2026-04-25 05:46 | 25.25447 | 55.35678 | 31 ft | 22 kts | 122° |
| 2026-04-25 05:46 | 25.25374 | 55.35809 | 31 ft | 13 kts | 121° |
| 2026-04-25 05:46 | 25.25354 | 55.35873 | 31 ft | 7 kts | 71° |
| 2026-04-25 05:47 | 25.25391 | 55.35913 | 26 ft | 9 kts | 32° |
| 2026-04-25 05:47 | 25.25452 | 55.35955 | 26 ft | 11 kts | 30° |
| 2026-04-25 05:47 | 25.25505 | 55.36005 | 26 ft | 8 kts | 84° |
| 2026-04-25 05:47 | 25.25486 | 55.36072 | 26 ft | 11 kts | 122° |
| 2026-04-25 05:48 | 25.25406 | 55.36215 | 26 ft | 50 kts | 121° |
| 2026-04-25 05:48 | 25.25084 | 55.36799 | 28 ft | 124 kts | 121° |
| 2026-04-25 05:48 | 25.24535 | 55.37781 | 28 ft | 172 kts | 121° |
| 2026-04-25 05:48 | 25.23887 | 55.38968 | 247 ft | 185 kts | 121° |
| 2026-04-25 05:49 | 25.23232 | 55.40148 | 902 ft | 178 kts | 121° |
| 2026-04-25 05:49 | 25.22586 | 55.41327 | 1436 ft | 183 kts | 120° |
| 2026-04-25 05:49 | 25.21910 | 55.42555 | 1873 ft | 191 kts | 121° |
| 2026-04-25 05:49 | 25.21184 | 55.43853 | 2036 ft | 207 kts | 121° |
| 2026-04-25 05:50 | 25.20400 | 55.45245 | 2155 ft | 220 kts | 121° |
| 2026-04-25 05:50 | 25.19572 | 55.46715 | 2253 ft | 231 kts | 121° |
| 2026-04-25 05:50 | 25.18711 | 55.48242 | 2345 ft | 246 kts | 121° |
| 2026-04-25 05:50 | 25.17802 | 55.49853 | 2972 ft | 245 kts | 121° |
| 2026-04-25 05:51 | 25.16903 | 55.51448 | 3648 ft | 245 kts | 121° |
| 2026-04-25 05:51 | 25.15994 | 55.53062 | 4249 ft | 249 kts | 121° |
| 2026-04-25 05:51 | 25.15070 | 55.54699 | 4859 ft | 253 kts | 121° |
| 2026-04-25 05:51 | 25.14138 | 55.56353 | 5475 ft | 255 kts | 122° |
| 2026-04-25 05:52 | 25.13197 | 55.58025 | 6108 ft | 257 kts | 122° |
| 2026-04-25 05:52 | 25.12262 | 55.59684 | 6716 ft | 258 kts | 122° |
| 2026-04-25 05:52 | 25.11276 | 55.61346 | 7276 ft | 261 kts | 129° |
| 2026-04-25 05:52 | 25.10026 | 55.62801 | 7879 ft | 264 kts | 137° |
| 2026-04-25 05:53 | 25.08662 | 55.64273 | 8128 ft | 285 kts | 136° |
| 2026-04-25 05:53 | 25.07220 | 55.65862 | 8536 ft | 297 kts | 136° |
| 2026-04-25 05:53 | 25.05773 | 55.67471 | 9254 ft | 296 kts | 136° |
| 2026-04-25 05:53 | 25.04311 | 55.69094 | 9915 ft | 299 kts | 136° |
| 2026-04-25 05:54 | 25.02829 | 55.70736 | 10360 ft | 310 kts | 136° |
| 2026-04-25 05:54 | 25.01283 | 55.72443 | 10512 ft | 328 kts | 136° |
| 2026-04-25 05:54 | 24.97909 | 55.76167 | 11031 ft | 353 kts | 136° |
| 2026-04-25 05:55 | 24.96167 | 55.78085 | 11603 ft | 355 kts | 137° |
| 2026-04-25 05:55 | 24.94255 | 55.79818 | 12155 ft | 357 kts | 147° |
| 2026-04-25 05:55 | 24.92096 | 55.81188 | 12737 ft | 359 kts | 156° |
| 2026-04-25 05:55 | 24.89788 | 55.82264 | 13296 ft | 362 kts | 158° |
| 2026-04-25 05:56 | 24.87465 | 55.83348 | 13850 ft | 365 kts | 158° |
| 2026-04-25 05:56 | 24.85205 | 55.84636 | 14368 ft | 368 kts | 146° |
| 2026-04-25 05:56 | 24.83262 | 55.86415 | 14913 ft | 370 kts | 134° |
| 2026-04-25 05:56 | 24.81646 | 55.88635 | 15432 ft | 373 kts | 126° |
| 2026-04-25 05:57 | 24.80080 | 55.90917 | 15907 ft | 375 kts | 133° |
| 2026-04-25 05:57 | 24.78048 | 55.92699 | 16433 ft | 375 kts | 152° |
| 2026-04-25 05:57 | 24.75617 | 55.93685 | 16977 ft | 374 kts | 170° |
| 2026-04-25 05:57 | 24.73012 | 55.93842 | 17405 ft | 378 kts | 182° |
| 2026-04-25 05:58 | 24.70377 | 55.93718 | 17878 ft | 380 kts | 183° |
| 2026-04-25 05:58 | 24.67729 | 55.93588 | 18365 ft | 383 kts | 182° |
| 2026-04-25 05:58 | 24.65053 | 55.93481 | 18788 ft | 385 kts | 182° |
| 2026-04-25 05:58 | 24.62415 | 55.93313 | 19175 ft | 387 kts | 189° |
| 2026-04-25 05:59 | 24.59832 | 55.92492 | 19617 ft | 387 kts | 204° |
| 2026-04-25 05:59 | 24.57523 | 55.90976 | 20033 ft | 389 kts | 219° |
| 2026-04-25 05:59 | 24.55501 | 55.89011 | 20442 ft | 390 kts | 222° |
| 2026-04-25 05:59 | 24.53461 | 55.87026 | 20859 ft | 391 kts | 222° |
| 2026-04-25 06:00 | 24.51410 | 55.85051 | 21273 ft | 393 kts | 222° |
| 2026-04-25 06:00 | 24.49350 | 55.83074 | 21706 ft | 394 kts | 222° |
| 2026-04-25 06:00 | 24.47282 | 55.81089 | 22095 ft | 396 kts | 222° |
| 2026-04-25 06:00 | 24.45208 | 55.79096 | 22506 ft | 398 kts | 223° |
| 2026-04-25 06:01 | 24.43121 | 55.77091 | 22903 ft | 399 kts | 223° |
| 2026-04-25 06:01 | 24.41060 | 55.75112 | 23306 ft | 401 kts | 223° |
| 2026-04-25 06:01 | 24.38958 | 55.73094 | 23668 ft | 403 kts | 223° |
| 2026-04-25 06:01 | 24.36844 | 55.71064 | 23988 ft | 404 kts | 223° |
| 2026-04-25 06:02 | 24.34726 | 55.69032 | 24308 ft | 406 kts | 223° |
| 2026-04-25 06:02 | 24.32593 | 55.66985 | 24633 ft | 408 kts | 223° |
| 2026-04-25 06:02 | 24.30449 | 55.64931 | 24944 ft | 410 kts | 223° |
| 2026-04-25 06:02 | 24.28269 | 55.62899 | 25260 ft | 413 kts | 219° |
| 2026-04-25 06:03 | 24.25842 | 55.61170 | 25511 ft | 420 kts | 211° |
| 2026-04-25 06:03 | 24.23203 | 55.59864 | 25861 ft | 424 kts | 202° |
| 2026-04-25 06:03 | 24.20358 | 55.58946 | 26200 ft | 428 kts | 198° |
| 2026-04-25 06:03 | 24.17470 | 55.58104 | 26538 ft | 431 kts | 198° |
| 2026-04-25 06:04 | 24.14575 | 55.57239 | 26897 ft | 433 kts | 198° |
| 2026-04-25 06:04 | 24.11659 | 55.56362 | 27259 ft | 435 kts | 198° |
| 2026-04-25 06:04 | 24.08730 | 55.55483 | 27654 ft | 438 kts | 198° |
| 2026-04-25 06:04 | 24.05783 | 55.54600 | 28041 ft | 440 kts | 198° |
| 2026-04-25 06:05 | 24.02817 | 55.53713 | 28437 ft | 443 kts | 198° |
| 2026-04-25 06:05 | 23.99875 | 55.52834 | 28830 ft | 446 kts | 198° |
| 2026-04-25 06:05 | 23.96874 | 55.51941 | 29203 ft | 449 kts | 198° |
| 2026-04-25 06:05 | 23.93841 | 55.51041 | 29578 ft | 452 kts | 198° |
| 2026-04-25 06:06 | 23.90797 | 55.50138 | 29981 ft | 455 kts | 198° |
| 2026-04-25 06:06 | 23.87733 | 55.49229 | 30346 ft | 458 kts | 198° |
| 2026-04-25 06:06 | 23.84648 | 55.48314 | 30705 ft | 460 kts | 198° |
| 2026-04-25 06:06 | 23.81554 | 55.47396 | 31073 ft | 462 kts | 198° |
| 2026-04-25 06:07 | 23.78445 | 55.46472 | 31418 ft | 465 kts | 198° |
| 2026-04-25 06:07 | 23.75313 | 55.45542 | 31768 ft | 467 kts | 198° |
| 2026-04-25 06:07 | 23.72173 | 55.44610 | 32113 ft | 469 kts | 198° |
| 2026-04-25 06:07 | 23.69052 | 55.43684 | 32441 ft | 472 kts | 198° |
| 2026-04-25 06:08 | 23.65882 | 55.42745 | 32791 ft | 474 kts | 198° |
| 2026-04-25 06:08 | 23.62685 | 55.41798 | 33138 ft | 476 kts | 198° |
| 2026-04-25 06:08 | 23.59579 | 55.40575 | 33451 ft | 474 kts | 209° |
| 2026-04-25 06:08 | 23.56774 | 55.38716 | 33797 ft | 472 kts | 220° |
| 2026-04-25 06:09 | 23.54349 | 55.36312 | 33969 ft | 474 kts | 230° |
| 2026-04-25 06:09 | 23.52384 | 55.33418 | 33951 ft | 476 kts | 242° |
| 2026-04-25 06:09 | 23.50181 | 55.26720 | 33952 ft | 471 kts | 262° |
| 2026-04-25 06:10 | 23.49396 | 55.19676 | 33952 ft | 471 kts | 263° |
| 2026-04-25 06:10 | 23.48569 | 55.12591 | 33945 ft | 471 kts | 263° |
| 2026-04-25 06:11 | 23.47740 | 55.05502 | 33938 ft | 472 kts | 263° |
| 2026-04-25 06:11 | 23.46917 | 54.98466 | 33943 ft | 471 kts | 263° |
| 2026-04-25 06:12 | 23.46086 | 54.91384 | 33937 ft | 471 kts | 263° |
| 2026-04-25 06:12 | 23.45253 | 54.84313 | 33931 ft | 471 kts | 263° |
| 2026-04-25 06:13 | 23.44416 | 54.77237 | 33928 ft | 471 kts | 263° |
| 2026-04-25 06:14 | 23.43163 | 54.66695 | 33936 ft | 470 kts | 263° |
| 2026-04-25 06:14 | 23.42321 | 54.59642 | 33940 ft | 470 kts | 263° |
| 2026-04-25 06:15 | 23.41475 | 54.52591 | 33941 ft | 469 kts | 262° |
| 2026-04-25 06:15 | 23.40628 | 54.45549 | 33952 ft | 468 kts | 262° |
| 2026-04-25 06:16 | 23.39784 | 54.38569 | 33950 ft | 468 kts | 262° |
| 2026-04-25 06:16 | 23.38933 | 54.31549 | 33946 ft | 467 kts | 262° |
| 2026-04-25 06:17 | 23.38080 | 54.24547 | 33945 ft | 467 kts | 262° |
| 2026-04-25 06:17 | 23.37225 | 54.17549 | 33956 ft | 466 kts | 262° |
| 2026-04-25 06:18 | 23.36369 | 54.10567 | 33951 ft | 465 kts | 262° |
| 2026-04-25 06:18 | 23.35511 | 54.03601 | 33951 ft | 465 kts | 262° |
| 2026-04-25 06:19 | 23.34656 | 53.96680 | 33965 ft | 464 kts | 262° |
| 2026-04-25 06:19 | 23.33793 | 53.89726 | 33954 ft | 463 kts | 262° |
| 2026-04-25 06:20 | 23.32928 | 53.82775 | 33952 ft | 463 kts | 262° |
| 2026-04-25 06:20 | 23.32061 | 53.75837 | 33951 ft | 463 kts | 262° |
| 2026-04-25 06:21 | 23.31198 | 53.68956 | 33956 ft | 462 kts | 262° |
| 2026-04-25 06:21 | 23.30326 | 53.62030 | 33952 ft | 462 kts | 262° |
| 2026-04-25 06:22 | 23.29452 | 53.55109 | 33952 ft | 462 kts | 262° |
| 2026-04-25 06:22 | 23.28574 | 53.48181 | 33956 ft | 462 kts | 262° |
| 2026-04-25 06:23 | 23.27694 | 53.41265 | 33960 ft | 462 kts | 262° |
| 2026-04-25 06:23 | 23.26815 | 53.34387 | 33964 ft | 462 kts | 262° |
| 2026-04-25 06:24 | 23.25928 | 53.27463 | 33965 ft | 462 kts | 261° |
| 2026-04-25 06:24 | 23.25037 | 53.20532 | 33966 ft | 463 kts | 261° |
| 2026-04-25 06:25 | 23.24143 | 53.13609 | 33966 ft | 463 kts | 261° |
| 2026-04-25 06:25 | 23.23252 | 53.06727 | 33970 ft | 463 kts | 261° |
| 2026-04-25 06:26 | 23.22351 | 52.99795 | 33970 ft | 463 kts | 261° |
| 2026-04-25 06:26 | 23.21445 | 52.92852 | 33963 ft | 464 kts | 261° |
| 2026-04-25 06:27 | 23.20537 | 52.85914 | 33973 ft | 464 kts | 261° |
| 2026-04-25 06:27 | 23.19631 | 52.79015 | 33977 ft | 464 kts | 261° |
| 2026-04-25 06:28 | 23.18715 | 52.72066 | 33970 ft | 465 kts | 261° |
| 2026-04-25 06:28 | 23.17797 | 52.65117 | 33973 ft | 465 kts | 261° |
| 2026-04-25 06:29 | 23.16873 | 52.58157 | 33974 ft | 465 kts | 261° |
| 2026-04-25 06:29 | 23.15954 | 52.51254 | 33971 ft | 465 kts | 261° |
| 2026-04-25 06:30 | 23.15025 | 52.44291 | 33979 ft | 465 kts | 261° |
| 2026-04-25 06:30 | 23.13526 | 52.37475 | 33980 ft | 466 kts | 251° |
| 2026-04-25 06:31 | 23.11385 | 52.30837 | 33977 ft | 466 kts | 251° |
| 2026-04-25 06:31 | 23.09291 | 52.24220 | 33968 ft | 467 kts | 251° |
| 2026-04-25 06:32 | 23.07172 | 52.17544 | 33972 ft | 468 kts | 251° |
| 2026-04-25 06:32 | 23.05040 | 52.10857 | 33980 ft | 469 kts | 251° |
| 2026-04-25 06:33 | 23.02903 | 52.04164 | 33990 ft | 469 kts | 251° |
| 2026-04-25 06:33 | 23.00766 | 51.97483 | 33998 ft | 469 kts | 251° |
| 2026-04-25 06:34 | 22.98641 | 51.90847 | 33995 ft | 468 kts | 251° |
| 2026-04-25 06:34 | 22.96500 | 51.84176 | 33989 ft | 467 kts | 251° |
| 2026-04-25 06:35 | 22.94362 | 51.77525 | 33977 ft | 467 kts | 251° |
| 2026-04-25 06:35 | 22.92236 | 51.70919 | 33978 ft | 467 kts | 251° |
| 2026-04-25 06:36 | 22.90096 | 51.64282 | 33982 ft | 467 kts | 251° |
| 2026-04-25 06:36 | 22.87950 | 51.57639 | 33976 ft | 467 kts | 251° |
| 2026-04-25 06:37 | 22.85802 | 51.50996 | 33981 ft | 467 kts | 251° |
| 2026-04-25 06:37 | 22.83922 | 51.44318 | 33976 ft | 467 kts | 258° |
| 2026-04-25 06:38 | 22.82725 | 51.37403 | 33982 ft | 467 kts | 258° |
| 2026-04-25 06:38 | 22.81499 | 51.30490 | 33988 ft | 467 kts | 258° |
| 2026-04-25 06:39 | 22.80269 | 51.23573 | 33985 ft | 467 kts | 258° |
| 2026-04-25 06:39 | 22.79038 | 51.16663 | 33988 ft | 467 kts | 258° |
| 2026-04-25 06:40 | 22.77813 | 51.09795 | 33985 ft | 467 kts | 258° |
| 2026-04-25 06:40 | 22.76573 | 51.02883 | 33989 ft | 467 kts | 258° |
| 2026-04-25 06:41 | 22.75332 | 50.95976 | 33989 ft | 467 kts | 258° |
| 2026-04-25 06:41 | 22.74087 | 50.89066 | 33987 ft | 467 kts | 258° |
| 2026-04-25 06:42 | 22.72846 | 50.82200 | 33988 ft | 467 kts | 258° |
| 2026-04-25 06:42 | 22.71597 | 50.75302 | 33992 ft | 467 kts | 258° |
| 2026-04-25 06:43 | 22.70345 | 50.68404 | 33989 ft | 467 kts | 258° |
| 2026-04-25 06:43 | 22.69091 | 50.61514 | 33991 ft | 466 kts | 258° |
| 2026-04-25 06:44 | 22.67841 | 50.54669 | 33986 ft | 466 kts | 258° |
| 2026-04-25 06:44 | 22.66582 | 50.47787 | 33990 ft | 466 kts | 258° |
| 2026-04-25 06:45 | 22.65320 | 50.40906 | 33994 ft | 466 kts | 258° |
| 2026-04-25 06:45 | 22.64054 | 50.34020 | 33996 ft | 466 kts | 258° |
| 2026-04-25 06:46 | 22.62788 | 50.27153 | 33994 ft | 465 kts | 258° |
| 2026-04-25 06:46 | 22.61527 | 50.20329 | 33991 ft | 465 kts | 258° |
| 2026-04-25 06:47 | 22.60256 | 50.13467 | 33994 ft | 465 kts | 258° |
| 2026-04-25 06:47 | 22.58983 | 50.06612 | 33990 ft | 464 kts | 258° |
| 2026-04-25 06:48 | 22.57710 | 49.99770 | 33991 ft | 464 kts | 258° |
| 2026-04-25 06:48 | 22.56440 | 49.92967 | 33999 ft | 464 kts | 258° |
| 2026-04-25 06:49 | 22.55160 | 49.86124 | 33995 ft | 464 kts | 258° |
| 2026-04-25 06:49 | 22.53997 | 49.79272 | 33992 ft | 464 kts | 263° |
| 2026-04-25 06:50 | 22.53918 | 49.72330 | 34009 ft | 466 kts | 274° |
| 2026-04-25 06:50 | 22.54604 | 49.65372 | 34002 ft | 465 kts | 274° |
| 2026-04-25 06:51 | 22.55261 | 49.58413 | 33998 ft | 465 kts | 274° |
| 2026-04-25 06:51 | 22.55915 | 49.51463 | 34008 ft | 464 kts | 274° |
| 2026-04-25 06:52 | 22.56563 | 49.44576 | 34006 ft | 463 kts | 274° |
| 2026-04-25 06:52 | 22.57214 | 49.37638 | 34001 ft | 463 kts | 274° |
| 2026-04-25 06:53 | 22.57860 | 49.30719 | 33997 ft | 462 kts | 274° |
| 2026-04-25 06:53 | 22.58502 | 49.23805 | 33995 ft | 462 kts | 274° |
| 2026-04-25 06:54 | 22.59142 | 49.16891 | 33993 ft | 462 kts | 274° |
| 2026-04-25 06:54 | 22.59774 | 49.10024 | 33991 ft | 461 kts | 274° |
| 2026-04-25 06:55 | 22.60406 | 49.03121 | 34000 ft | 461 kts | 274° |
| 2026-04-25 06:55 | 22.61035 | 48.96218 | 34002 ft | 461 kts | 274° |
| 2026-04-25 06:56 | 22.61661 | 48.89320 | 33998 ft | 461 kts | 274° |
| 2026-04-25 06:56 | 22.62280 | 48.82463 | 34005 ft | 461 kts | 274° |
| 2026-04-25 06:57 | 22.62899 | 48.75568 | 34009 ft | 461 kts | 274° |
| 2026-04-25 06:57 | 22.63517 | 48.68659 | 34011 ft | 461 kts | 274° |
| 2026-04-25 06:58 | 22.64131 | 48.61761 | 34044 ft | 460 kts | 274° |
| 2026-04-25 06:58 | 22.64740 | 48.54886 | 34032 ft | 458 kts | 274° |
| 2026-04-25 06:59 | 22.65340 | 48.48069 | 34027 ft | 457 kts | 274° |
| 2026-04-25 06:59 | 22.65942 | 48.41220 | 34042 ft | 456 kts | 274° |
| 2026-04-25 07:00 | 22.66536 | 48.34402 | 34038 ft | 454 kts | 274° |
| 2026-04-25 07:00 | 22.67127 | 48.27593 | 34025 ft | 453 kts | 273° |
| 2026-04-25 07:01 | 22.67710 | 48.20854 | 33998 ft | 453 kts | 273° |
| 2026-04-25 07:01 | 22.68294 | 48.14055 | 33993 ft | 453 kts | 273° |
| 2026-04-25 07:02 | 22.68874 | 48.07272 | 33992 ft | 453 kts | 273° |
| 2026-04-25 07:02 | 22.69453 | 48.00475 | 33989 ft | 453 kts | 273° |
| 2026-04-25 07:03 | 22.70019 | 47.93724 | 33978 ft | 454 kts | 273° |
| 2026-04-25 07:03 | 22.70589 | 47.86909 | 33996 ft | 455 kts | 273° |
| 2026-04-25 07:04 | 22.71159 | 47.80074 | 34007 ft | 457 kts | 273° |
| 2026-04-25 07:04 | 22.71728 | 47.73210 | 34012 ft | 458 kts | 273° |
| 2026-04-25 07:05 | 22.72292 | 47.66367 | 34024 ft | 460 kts | 273° |
| 2026-04-25 07:05 | 22.72859 | 47.59463 | 34033 ft | 461 kts | 273° |
| 2026-04-25 07:06 | 22.73422 | 47.52554 | 34052 ft | 460 kts | 273° |
| 2026-04-25 07:06 | 22.73982 | 47.45654 | 34050 ft | 459 kts | 273° |
| 2026-04-25 07:07 | 22.74538 | 47.38764 | 34042 ft | 459 kts | 273° |
| 2026-04-25 07:07 | 22.75087 | 47.31937 | 34054 ft | 457 kts | 273° |
| 2026-04-25 07:08 | 22.75634 | 47.25080 | 34054 ft | 456 kts | 273° |
| 2026-04-25 07:08 | 22.76178 | 47.18234 | 34041 ft | 456 kts | 273° |
| 2026-04-25 07:09 | 22.76720 | 47.11409 | 34059 ft | 454 kts | 274° |
| 2026-04-25 07:09 | 22.77262 | 47.04595 | 34072 ft | 453 kts | 273° |
| 2026-04-25 07:10 | 22.77794 | 46.97847 | 34061 ft | 452 kts | 273° |
| 2026-04-25 07:10 | 22.78326 | 46.91072 | 34074 ft | 450 kts | 274° |
| 2026-04-25 07:11 | 22.78853 | 46.84315 | 34058 ft | 449 kts | 274° |
| 2026-04-25 07:11 | 22.79373 | 46.77621 | 34058 ft | 448 kts | 274° |
| 2026-04-25 07:12 | 22.79893 | 46.70874 | 34281 ft | 451 kts | 274° |
| 2026-04-25 07:12 | 22.80409 | 46.64157 | 35448 ft | 442 kts | 274° |
| 2026-04-25 07:12 | 22.80661 | 46.60852 | 35905 ft | 441 kts | 274° |
| 2026-04-25 07:13 | 22.80829 | 46.58650 | 36024 ft | 440 kts | 275° |
| 2026-04-25 07:13 | 22.81078 | 46.55385 | 36062 ft | 433 kts | 275° |
| 2026-04-25 07:13 | 22.81655 | 46.47775 | 36074 ft | 434 kts | 274° |
| 2026-04-25 07:14 | 22.82140 | 46.41319 | 36066 ft | 432 kts | 274° |
| 2026-04-25 07:14 | 22.82544 | 46.35929 | 36059 ft | 432 kts | 274° |
| 2026-04-25 07:15 | 22.83024 | 46.29457 | 36057 ft | 430 kts | 274° |
| 2026-04-25 07:15 | 22.83500 | 46.22996 | 36042 ft | 430 kts | 274° |
| 2026-04-25 07:16 | 22.83974 | 46.16533 | 36029 ft | 430 kts | 274° |
| 2026-04-25 07:16 | 22.84444 | 46.10083 | 36032 ft | 430 kts | 274° |
| 2026-04-25 07:17 | 22.84909 | 46.03664 | 36034 ft | 430 kts | 274° |
| 2026-04-25 07:17 | 22.85376 | 45.97193 | 36027 ft | 430 kts | 274° |
| 2026-04-25 07:18 | 22.85840 | 45.90726 | 36041 ft | 430 kts | 274° |
| 2026-04-25 07:18 | 22.86301 | 45.84260 | 36039 ft | 430 kts | 274° |
| 2026-04-25 07:19 | 22.86756 | 45.77836 | 36037 ft | 430 kts | 274° |
| 2026-04-25 07:19 | 22.87211 | 45.71376 | 36037 ft | 429 kts | 274° |
| 2026-04-25 07:20 | 22.87663 | 45.64932 | 36033 ft | 429 kts | 274° |
| 2026-04-25 07:20 | 22.88112 | 45.58486 | 36029 ft | 428 kts | 274° |
| 2026-04-25 07:21 | 22.88555 | 45.52092 | 36024 ft | 428 kts | 274° |
| 2026-04-25 07:21 | 22.88997 | 45.45667 | 36029 ft | 428 kts | 274° |
| 2026-04-25 07:22 | 22.89437 | 45.39233 | 36026 ft | 427 kts | 274° |
| 2026-04-25 07:22 | 22.89875 | 45.32808 | 36036 ft | 427 kts | 274° |
| 2026-04-25 07:23 | 22.90309 | 45.26377 | 36036 ft | 427 kts | 274° |
| 2026-04-25 07:23 | 22.90741 | 45.19956 | 36038 ft | 427 kts | 274° |
| 2026-04-25 07:24 | 22.91167 | 45.13585 | 36038 ft | 426 kts | 274° |
| 2026-04-25 07:24 | 22.91594 | 45.07172 | 36035 ft | 426 kts | 274° |
| 2026-04-25 07:25 | 22.92016 | 45.00758 | 36034 ft | 426 kts | 274° |
| 2026-04-25 07:25 | 22.92435 | 44.94352 | 36037 ft | 426 kts | 274° |
| 2026-04-25 07:26 | 22.92849 | 44.87990 | 36037 ft | 426 kts | 274° |
| 2026-04-25 07:26 | 22.93262 | 44.81581 | 36037 ft | 426 kts | 274° |
| 2026-04-25 07:27 | 22.93676 | 44.75168 | 36041 ft | 426 kts | 274° |
| 2026-04-25 07:27 | 22.94183 | 44.68763 | 36045 ft | 426 kts | 278° |
| 2026-04-25 07:28 | 22.95577 | 44.62544 | 36042 ft | 428 kts | 287° |
| 2026-04-25 07:28 | 22.97493 | 44.56429 | 36045 ft | 428 kts | 286° |
| 2026-04-25 07:29 | 22.99376 | 44.50303 | 36044 ft | 428 kts | 286° |
| 2026-04-25 07:29 | 23.01259 | 44.44183 | 36042 ft | 428 kts | 286° |
| 2026-04-25 07:30 | 23.03142 | 44.38063 | 36044 ft | 427 kts | 286° |
| 2026-04-25 07:30 | 23.05009 | 44.31983 | 36041 ft | 427 kts | 286° |
| 2026-04-25 07:31 | 23.06884 | 44.25873 | 36032 ft | 427 kts | 286° |
| 2026-04-25 07:31 | 23.08756 | 44.19759 | 36032 ft | 426 kts | 286° |
| 2026-04-25 07:32 | 23.10622 | 44.13656 | 36030 ft | 426 kts | 286° |
| 2026-04-25 07:32 | 23.12472 | 44.07592 | 36026 ft | 426 kts | 286° |
| 2026-04-25 07:33 | 23.14334 | 44.01490 | 36041 ft | 425 kts | 285° |
| 2026-04-25 07:33 | 23.16192 | 43.95385 | 36034 ft | 426 kts | 285° |
| 2026-04-25 07:34 | 23.18049 | 43.89277 | 36036 ft | 426 kts | 285° |
| 2026-04-25 07:34 | 23.19890 | 43.83208 | 36037 ft | 426 kts | 285° |
| 2026-04-25 07:35 | 23.21744 | 43.77087 | 36042 ft | 426 kts | 285° |
| 2026-04-25 07:35 | 23.23595 | 43.70969 | 36043 ft | 426 kts | 285° |
| 2026-04-25 07:36 | 23.25443 | 43.64850 | 36048 ft | 426 kts | 285° |
| 2026-04-25 07:36 | 23.27276 | 43.58773 | 36053 ft | 426 kts | 285° |
| 2026-04-25 07:37 | 23.29119 | 43.52655 | 36044 ft | 426 kts | 285° |
| 2026-04-25 07:37 | 23.30958 | 43.46536 | 36047 ft | 425 kts | 285° |
| 2026-04-25 07:38 | 23.32794 | 43.40421 | 36045 ft | 426 kts | 285° |
| 2026-04-25 07:38 | 23.34617 | 43.34337 | 36048 ft | 425 kts | 285° |
| 2026-04-25 07:39 | 23.36450 | 43.28217 | 36050 ft | 426 kts | 285° |
| 2026-04-25 07:39 | 23.38280 | 43.22091 | 36058 ft | 425 kts | 285° |
| 2026-04-25 07:40 | 23.40110 | 43.15958 | 36051 ft | 426 kts | 285° |
| 2026-04-25 07:40 | 23.41935 | 43.09822 | 36051 ft | 426 kts | 285° |
| 2026-04-25 07:41 | 23.43746 | 43.03717 | 36053 ft | 427 kts | 285° |
| 2026-04-25 07:41 | 23.45570 | 42.97556 | 36060 ft | 427 kts | 285° |
| 2026-04-25 07:42 | 23.47392 | 42.91395 | 36060 ft | 428 kts | 285° |
| 2026-04-25 07:42 | 23.49215 | 42.85220 | 36057 ft | 428 kts | 285° |
| 2026-04-25 07:43 | 23.51023 | 42.79088 | 36057 ft | 428 kts | 285° |
| 2026-04-25 07:43 | 23.52843 | 42.72905 | 36053 ft | 428 kts | 285° |
| 2026-04-25 07:44 | 23.54663 | 42.66728 | 36043 ft | 428 kts | 285° |
| 2026-04-25 07:44 | 23.56480 | 42.60552 | 36048 ft | 428 kts | 284° |
| 2026-04-25 07:45 | 23.58296 | 42.54371 | 36047 ft | 428 kts | 284° |
| 2026-04-25 07:45 | 23.60092 | 42.48245 | 36030 ft | 427 kts | 284° |
| 2026-04-25 07:46 | 23.61897 | 42.42076 | 36024 ft | 427 kts | 284° |
| 2026-04-25 07:46 | 23.63696 | 42.35920 | 36025 ft | 426 kts | 284° |
| 2026-04-25 07:47 | 23.65479 | 42.29807 | 36018 ft | 425 kts | 284° |
| 2026-04-25 07:47 | 23.67266 | 42.23663 | 36010 ft | 425 kts | 284° |
| 2026-04-25 07:48 | 23.69047 | 42.17512 | 36026 ft | 425 kts | 284° |
| 2026-04-25 07:48 | 23.70821 | 42.11378 | 36029 ft | 424 kts | 284° |
| 2026-04-25 07:49 | 23.72583 | 42.05278 | 36028 ft | 424 kts | 284° |
| 2026-04-25 07:49 | 23.74351 | 41.99150 | 36016 ft | 423 kts | 284° |
| 2026-04-25 07:50 | 23.76121 | 41.93021 | 36027 ft | 423 kts | 284° |
| 2026-04-25 07:50 | 23.77888 | 41.86909 | 36021 ft | 422 kts | 284° |
| 2026-04-25 07:51 | 23.79651 | 41.80796 | 36021 ft | 422 kts | 284° |
| 2026-04-25 07:51 | 23.81397 | 41.74728 | 36029 ft | 422 kts | 284° |
| 2026-04-25 07:52 | 23.83151 | 41.68618 | 36027 ft | 421 kts | 284° |
| 2026-04-25 07:52 | 23.84898 | 41.62520 | 36025 ft | 421 kts | 284° |
| 2026-04-25 07:53 | 23.86644 | 41.56417 | 36026 ft | 421 kts | 284° |
| 2026-04-25 07:53 | 23.88368 | 41.50360 | 36037 ft | 420 kts | 284° |
| 2026-04-25 07:54 | 23.90096 | 41.44269 | 36033 ft | 419 kts | 284° |
| 2026-04-25 07:54 | 23.91823 | 41.38176 | 36024 ft | 419 kts | 284° |
| 2026-04-25 07:55 | 23.93544 | 41.32098 | 36036 ft | 418 kts | 284° |
| 2026-04-25 07:55 | 23.95254 | 41.26071 | 36025 ft | 418 kts | 284° |
| 2026-04-25 07:56 | 23.96971 | 41.20006 | 36019 ft | 417 kts | 284° |
| 2026-04-25 07:56 | 23.98684 | 41.13943 | 36013 ft | 417 kts | 284° |
| 2026-04-25 07:57 | 24.00392 | 41.07889 | 36019 ft | 417 kts | 284° |
| 2026-04-25 07:57 | 24.02098 | 41.01829 | 36017 ft | 417 kts | 283° |
| 2026-04-25 07:58 | 24.03790 | 40.95812 | 36009 ft | 417 kts | 284° |
| 2026-04-25 07:58 | 24.05491 | 40.89753 | 36012 ft | 417 kts | 283° |
| 2026-04-25 07:59 | 24.07191 | 40.83689 | 36002 ft | 417 kts | 283° |
| 2026-04-25 07:59 | 24.08888 | 40.77622 | 36010 ft | 417 kts | 283° |
| 2026-04-25 08:00 | 24.10573 | 40.71588 | 36004 ft | 417 kts | 283° |
| 2026-04-25 08:00 | 24.12267 | 40.65517 | 36007 ft | 417 kts | 283° |
| 2026-04-25 08:01 | 24.13960 | 40.59435 | 36005 ft | 418 kts | 283° |
| 2026-04-25 08:01 | 24.15656 | 40.53403 | 35995 ft | 418 kts | 285° |
| 2026-04-25 08:02 | 24.18048 | 40.47555 | 36003 ft | 424 kts | 293° |
| 2026-04-25 08:02 | 24.20803 | 40.41857 | 36000 ft | 423 kts | 292° |
| 2026-04-25 08:03 | 24.23531 | 40.36151 | 35986 ft | 423 kts | 292° |
| 2026-04-25 08:03 | 24.26260 | 40.30446 | 35990 ft | 423 kts | 292° |
| 2026-04-25 08:04 | 24.28972 | 40.24774 | 35997 ft | 423 kts | 292° |
| 2026-04-25 08:04 | 24.31699 | 40.19066 | 35986 ft | 422 kts | 292° |
| 2026-04-25 08:05 | 24.34420 | 40.13363 | 35990 ft | 422 kts | 292° |
| 2026-04-25 08:05 | 24.37139 | 40.07655 | 35977 ft | 422 kts | 292° |
| 2026-04-25 08:06 | 24.39837 | 40.01986 | 35989 ft | 422 kts | 292° |
| 2026-04-25 08:06 | 24.42550 | 39.96278 | 35986 ft | 422 kts | 292° |
| 2026-04-25 08:07 | 24.45265 | 39.90561 | 35985 ft | 422 kts | 292° |
| 2026-04-25 08:07 | 24.47973 | 39.84848 | 35987 ft | 422 kts | 292° |
| 2026-04-25 08:08 | 24.50665 | 39.79164 | 36003 ft | 422 kts | 292° |
| 2026-04-25 08:08 | 24.53531 | 39.73515 | 36010 ft | 427 kts | 298° |
| 2026-04-25 08:09 | 24.57485 | 39.68541 | 36004 ft | 440 kts | 310° |
| 2026-04-25 08:09 | 24.62419 | 39.64430 | 35976 ft | 447 kts | 315° |
| 2026-04-25 08:10 | 24.67440 | 39.60417 | 35981 ft | 446 kts | 315° |
| 2026-04-25 08:10 | 24.72422 | 39.56426 | 35982 ft | 446 kts | 315° |
| 2026-04-25 08:11 | 24.77440 | 39.52410 | 35977 ft | 446 kts | 315° |
| 2026-04-25 08:11 | 24.82460 | 39.48392 | 35966 ft | 446 kts | 315° |
| 2026-04-25 08:12 | 24.87437 | 39.44406 | 35987 ft | 445 kts | 315° |
| 2026-04-25 08:12 | 24.92439 | 39.40391 | 35981 ft | 445 kts | 315° |
| 2026-04-25 08:13 | 24.97436 | 39.36375 | 35974 ft | 444 kts | 315° |
| 2026-04-25 08:14 | 25.04922 | 39.30355 | 35979 ft | 443 kts | 314° |
| 2026-04-25 08:14 | 25.09898 | 39.26349 | 35976 ft | 443 kts | 314° |
| 2026-04-25 08:15 | 25.14835 | 39.22369 | 35970 ft | 442 kts | 314° |
| 2026-04-25 08:15 | 25.19698 | 39.18269 | 35969 ft | 435 kts | 309° |
| 2026-04-25 08:16 | 25.23773 | 39.13482 | 35961 ft | 423 kts | 300° |
| 2026-04-25 08:16 | 25.27038 | 39.08147 | 35959 ft | 418 kts | 296° |
| 2026-04-25 08:17 | 25.30187 | 39.02787 | 35954 ft | 419 kts | 296° |
| 2026-04-25 08:17 | 25.33351 | 38.97395 | 35958 ft | 418 kts | 296° |
| 2026-04-25 08:18 | 25.36508 | 38.91995 | 35951 ft | 418 kts | 296° |
| 2026-04-25 08:18 | 25.39656 | 38.86598 | 35962 ft | 417 kts | 296° |
| 2026-04-25 08:19 | 25.42798 | 38.81205 | 35942 ft | 417 kts | 296° |
| 2026-04-25 08:19 | 25.45911 | 38.75858 | 35936 ft | 416 kts | 296° |
| 2026-04-25 08:20 | 25.49040 | 38.70478 | 35931 ft | 415 kts | 296° |
| 2026-04-25 08:20 | 25.52158 | 38.65109 | 35927 ft | 414 kts | 296° |
| 2026-04-25 08:21 | 25.55272 | 38.59740 | 35921 ft | 414 kts | 296° |
| 2026-04-25 08:21 | 25.58356 | 38.54417 | 35919 ft | 413 kts | 296° |
| 2026-04-25 08:22 | 25.61457 | 38.49059 | 35919 ft | 413 kts | 296° |
| 2026-04-25 08:22 | 25.64557 | 38.43697 | 35911 ft | 413 kts | 295° |
| 2026-04-25 08:23 | 25.67631 | 38.38371 | 35909 ft | 413 kts | 295° |
| 2026-04-25 08:23 | 25.70720 | 38.33015 | 35918 ft | 412 kts | 295° |
| 2026-04-25 08:24 | 25.73805 | 38.27661 | 35915 ft | 412 kts | 295° |
| 2026-04-25 08:24 | 25.76888 | 38.22302 | 35915 ft | 412 kts | 295° |
| 2026-04-25 08:25 | 25.79963 | 38.16950 | 35925 ft | 412 kts | 295° |
| 2026-04-25 08:25 | 25.83026 | 38.11612 | 35945 ft | 414 kts | 295° |
| 2026-04-25 08:26 | 25.86117 | 38.06221 | 35949 ft | 413 kts | 295° |
| 2026-04-25 08:26 | 25.89197 | 38.00851 | 35943 ft | 412 kts | 295° |
| 2026-04-25 08:27 | 25.92268 | 37.95483 | 35933 ft | 411 kts | 295° |
| 2026-04-25 08:27 | 25.95312 | 37.90165 | 35941 ft | 410 kts | 295° |
| 2026-04-25 08:28 | 25.98301 | 37.84792 | 35935 ft | 406 kts | 291° |
| 2026-04-25 08:28 | 26.00440 | 37.79072 | 35940 ft | 398 kts | 282° |
| 2026-04-25 08:29 | 26.01561 | 37.73094 | 35936 ft | 395 kts | 276° |
| 2026-04-25 08:29 | 26.02374 | 37.67098 | 35955 ft | 394 kts | 276° |
| 2026-04-25 08:30 | 26.03203 | 37.61088 | 35945 ft | 393 kts | 276° |
| 2026-04-25 08:30 | 26.04017 | 37.55076 | 35943 ft | 393 kts | 276° |
| 2026-04-25 08:31 | 26.04824 | 37.49076 | 35948 ft | 391 kts | 276° |
| 2026-04-25 08:31 | 26.05621 | 37.43133 | 35932 ft | 392 kts | 276° |
| 2026-04-25 08:32 | 26.06420 | 37.37133 | 35923 ft | 392 kts | 276° |
| 2026-04-25 08:32 | 26.07218 | 37.31135 | 35912 ft | 392 kts | 276° |
| 2026-04-25 08:33 | 26.08019 | 37.25128 | 35908 ft | 393 kts | 276° |
| 2026-04-25 08:33 | 26.08816 | 37.19119 | 35922 ft | 393 kts | 276° |
| 2026-04-25 08:34 | 26.09604 | 37.13152 | 35909 ft | 393 kts | 276° |
| 2026-04-25 08:34 | 26.10394 | 37.07144 | 35905 ft | 392 kts | 276° |
| 2026-04-25 08:35 | 26.11180 | 37.01150 | 35902 ft | 392 kts | 276° |
| 2026-04-25 08:35 | 26.11964 | 36.95156 | 35899 ft | 391 kts | 276° |
| 2026-04-25 08:36 | 26.12738 | 36.89206 | 35851 ft | 391 kts | 276° |
| 2026-04-25 08:36 | 26.13515 | 36.83222 | 35870 ft | 391 kts | 276° |
| 2026-04-25 08:37 | 26.14290 | 36.77237 | 35879 ft | 391 kts | 276° |
| 2026-04-25 08:37 | 26.15064 | 36.71238 | 35891 ft | 392 kts | 275° |
| 2026-04-25 08:38 | 26.15829 | 36.65282 | 35890 ft | 392 kts | 275° |
| 2026-04-25 08:38 | 26.16598 | 36.59282 | 35879 ft | 392 kts | 275° |
| 2026-04-25 08:39 | 26.17456 | 36.53291 | 35885 ft | 394 kts | 281° |
| 2026-04-25 08:39 | 26.19592 | 36.47624 | 35879 ft | 405 kts | 294° |
| 2026-04-25 08:40 | 26.23218 | 36.42725 | 35873 ft | 419 kts | 305° |
| 2026-04-25 08:40 | 26.27279 | 36.38074 | 35875 ft | 418 kts | 304° |
| 2026-04-25 08:41 | 26.31322 | 36.33405 | 35890 ft | 419 kts | 304° |
| 2026-04-25 08:41 | 26.35371 | 36.28731 | 35888 ft | 419 kts | 304° |
| 2026-04-25 08:42 | 26.39385 | 36.24094 | 35900 ft | 418 kts | 304° |
| 2026-04-25 08:42 | 26.43429 | 36.19418 | 35893 ft | 418 kts | 304° |
| 2026-04-25 08:43 | 26.47462 | 36.14749 | 35891 ft | 418 kts | 304° |
| 2026-04-25 08:43 | 26.51498 | 36.10072 | 35889 ft | 418 kts | 304° |
| 2026-04-25 08:44 | 26.55499 | 36.05431 | 35887 ft | 418 kts | 304° |
| 2026-04-25 08:44 | 26.59523 | 36.00757 | 35891 ft | 418 kts | 304° |
| 2026-04-25 08:45 | 26.63550 | 35.96075 | 35893 ft | 418 kts | 304° |
| 2026-04-25 08:45 | 26.67576 | 35.91388 | 35893 ft | 419 kts | 304° |
| 2026-04-25 08:46 | 26.71581 | 35.86721 | 35900 ft | 419 kts | 304° |
| 2026-04-25 08:46 | 26.75617 | 35.82014 | 35904 ft | 419 kts | 304° |
| 2026-04-25 08:47 | 26.79645 | 35.77312 | 35907 ft | 419 kts | 304° |
| 2026-04-25 08:47 | 26.83672 | 35.72604 | 35911 ft | 419 kts | 304° |
| 2026-04-25 08:48 | 26.87669 | 35.67928 | 35905 ft | 418 kts | 304° |
| 2026-04-25 08:48 | 26.91691 | 35.63218 | 35904 ft | 418 kts | 304° |
| 2026-04-25 08:49 | 26.95707 | 35.58509 | 35902 ft | 418 kts | 304° |
| 2026-04-25 08:49 | 26.99717 | 35.53801 | 35900 ft | 418 kts | 304° |
| 2026-04-25 08:50 | 27.03702 | 35.49118 | 35958 ft | 418 kts | 304° |
| 2026-04-25 08:50 | 27.07722 | 35.44386 | 35908 ft | 419 kts | 304° |
| 2026-04-25 08:51 | 27.11750 | 35.39644 | 35911 ft | 420 kts | 304° |
| 2026-04-25 08:51 | 27.15776 | 35.34897 | 35912 ft | 420 kts | 304° |
| 2026-04-25 08:52 | 27.19770 | 35.30183 | 35916 ft | 420 kts | 304° |
| 2026-04-25 08:52 | 27.23792 | 35.25430 | 35917 ft | 419 kts | 304° |
| 2026-04-25 08:53 | 27.27812 | 35.20674 | 35912 ft | 419 kts | 303° |
| 2026-04-25 08:53 | 27.31798 | 35.15953 | 35911 ft | 419 kts | 303° |
| 2026-04-25 08:54 | 27.35812 | 35.11193 | 35906 ft | 419 kts | 303° |
| 2026-04-25 08:54 | 27.39818 | 35.06439 | 35905 ft | 419 kts | 303° |
| 2026-04-25 08:55 | 27.43837 | 35.01659 | 35890 ft | 421 kts | 304° |
| 2026-04-25 08:55 | 27.47864 | 34.96868 | 35897 ft | 422 kts | 304° |
| 2026-04-25 08:56 | 27.51912 | 34.92113 | 35898 ft | 427 kts | 307° |
| 2026-04-25 08:56 | 27.56266 | 34.87544 | 35901 ft | 428 kts | 307° |
| 2026-04-25 08:57 | 27.60605 | 34.82963 | 35901 ft | 428 kts | 307° |
| 2026-04-25 08:57 | 27.64946 | 34.78371 | 35900 ft | 428 kts | 307° |
| 2026-04-25 08:58 | 27.69250 | 34.73813 | 35897 ft | 427 kts | 307° |
| 2026-04-25 08:58 | 27.73583 | 34.69219 | 35884 ft | 428 kts | 307° |
| 2026-04-25 08:59 | 27.77924 | 34.64612 | 35883 ft | 429 kts | 307° |
| 2026-04-25 08:59 | 27.82276 | 34.59987 | 35880 ft | 430 kts | 307° |
| 2026-04-25 09:00 | 27.86607 | 34.55381 | 35885 ft | 430 kts | 307° |
| 2026-04-25 09:00 | 27.90963 | 34.50742 | 35888 ft | 431 kts | 307° |
| 2026-04-25 09:01 | 27.95325 | 34.46092 | 35895 ft | 431 kts | 307° |
| 2026-04-25 09:01 | 27.99657 | 34.41407 | 35890 ft | 427 kts | 304° |
| 2026-04-25 09:02 | 28.03410 | 34.36335 | 35881 ft | 422 kts | 300° |
| 2026-04-25 09:02 | 28.07128 | 34.31200 | 35885 ft | 422 kts | 301° |
| 2026-04-25 09:03 | 28.10849 | 34.26061 | 35889 ft | 422 kts | 300° |
| 2026-04-25 09:03 | 28.14569 | 34.20908 | 35906 ft | 424 kts | 301° |
| 2026-04-25 09:04 | 28.18300 | 34.15724 | 35901 ft | 425 kts | 301° |
| 2026-04-25 09:04 | 28.22020 | 34.10554 | 35925 ft | 426 kts | 301° |
| 2026-04-25 09:05 | 28.25770 | 34.05336 | 35931 ft | 427 kts | 300° |
| 2026-04-25 09:05 | 28.29526 | 34.00107 | 35907 ft | 427 kts | 300° |
| 2026-04-25 09:06 | 28.33271 | 33.94884 | 35890 ft | 427 kts | 301° |
| 2026-04-25 09:06 | 28.37003 | 33.89667 | 35937 ft | 430 kts | 301° |
| 2026-04-25 09:07 | 28.40788 | 33.84374 | 35964 ft | 432 kts | 301° |
| 2026-04-25 09:07 | 28.44568 | 33.79087 | 35956 ft | 431 kts | 301° |
| 2026-04-25 09:08 | 28.48346 | 33.73795 | 35938 ft | 431 kts | 301° |
| 2026-04-25 09:08 | 28.52089 | 33.68541 | 35955 ft | 430 kts | 301° |
| 2026-04-25 09:09 | 28.55858 | 33.63250 | 35886 ft | 431 kts | 301° |
| 2026-04-25 09:09 | 28.59636 | 33.57957 | 35912 ft | 431 kts | 301° |
| 2026-04-25 09:10 | 28.63406 | 33.52663 | 35915 ft | 430 kts | 301° |
| 2026-04-25 09:10 | 28.67144 | 33.47391 | 35914 ft | 431 kts | 301° |
| 2026-04-25 09:11 | 28.72792 | 33.39415 | 35925 ft | 432 kts | 301° |
| 2026-04-25 09:11 | 28.76558 | 33.34090 | 35920 ft | 431 kts | 301° |
| 2026-04-25 09:12 | 28.80320 | 33.28763 | 35921 ft | 431 kts | 301° |
| 2026-04-25 09:12 | 28.84079 | 33.23433 | 35922 ft | 431 kts | 301° |
| 2026-04-25 09:13 | 28.87810 | 33.18136 | 35921 ft | 431 kts | 301° |
| 2026-04-25 09:13 | 28.91570 | 33.12792 | 35914 ft | 432 kts | 301° |
| 2026-04-25 09:14 | 28.95333 | 33.07436 | 35914 ft | 432 kts | 301° |
| 2026-04-25 09:14 | 28.99095 | 33.02075 | 35919 ft | 432 kts | 301° |
| 2026-04-25 09:15 | 29.02829 | 32.96748 | 35925 ft | 432 kts | 301° |
| 2026-04-25 09:15 | 29.06585 | 32.91381 | 35919 ft | 432 kts | 301° |
| 2026-04-25 09:16 | 29.10339 | 32.86011 | 35923 ft | 433 kts | 301° |
| 2026-04-25 09:16 | 29.14075 | 32.80658 | 35913 ft | 433 kts | 301° |
| 2026-04-25 09:17 | 29.19709 | 32.72576 | 35917 ft | 433 kts | 301° |
| 2026-04-25 09:18 | 29.23460 | 32.67184 | 35915 ft | 433 kts | 301° |
| 2026-04-25 09:18 | 29.27210 | 32.61788 | 35940 ft | 433 kts | 300° |
| 2026-04-25 09:19 | 29.30927 | 32.56414 | 35904 ft | 434 kts | 300° |
| 2026-04-25 09:19 | 29.34655 | 32.50974 | 35904 ft | 435 kts | 300° |
| 2026-04-25 09:20 | 29.38398 | 32.45508 | 35916 ft | 437 kts | 300° |
| 2026-04-25 09:20 | 29.42162 | 32.40017 | 35931 ft | 438 kts | 300° |
| 2026-04-25 09:21 | 29.45920 | 32.34525 | 35963 ft | 438 kts | 300° |
| 2026-04-25 09:21 | 29.49660 | 32.29051 | 35936 ft | 438 kts | 300° |
| 2026-04-25 09:22 | 29.53414 | 32.23550 | 35930 ft | 437 kts | 300° |
| 2026-04-25 09:22 | 29.57155 | 32.18063 | 35913 ft | 436 kts | 300° |
| 2026-04-25 09:23 | 29.60892 | 32.12569 | 35913 ft | 436 kts | 300° |
| 2026-04-25 09:23 | 29.64605 | 32.07105 | 35940 ft | 437 kts | 300° |
| 2026-04-25 09:24 | 29.68350 | 32.01586 | 35912 ft | 438 kts | 300° |
| 2026-04-25 09:24 | 29.72082 | 31.96078 | 35916 ft | 438 kts | 300° |
| 2026-04-25 09:25 | 29.75828 | 31.90544 | 35926 ft | 440 kts | 301° |
| 2026-04-25 09:25 | 29.79586 | 31.84963 | 35913 ft | 440 kts | 300° |
| 2026-04-25 09:26 | 29.83215 | 31.79291 | 35935 ft | 440 kts | 299° |
| 2026-04-25 09:26 | 29.86820 | 31.73626 | 35921 ft | 442 kts | 299° |
| 2026-04-25 09:27 | 29.90463 | 31.67930 | 35921 ft | 442 kts | 299° |
| 2026-04-25 09:27 | 29.94119 | 31.62243 | 35921 ft | 442 kts | 300° |
| 2026-04-25 09:28 | 29.97798 | 31.56569 | 35900 ft | 441 kts | 300° |
| 2026-04-25 09:28 | 30.01442 | 31.50933 | 35897 ft | 441 kts | 300° |
| 2026-04-25 09:29 | 30.05110 | 31.45245 | 35885 ft | 442 kts | 300° |
| 2026-04-25 09:29 | 30.08834 | 31.39588 | 35883 ft | 446 kts | 303° |
| 2026-04-25 09:30 | 30.13291 | 31.34502 | 35883 ft | 453 kts | 309° |
| 2026-04-25 09:30 | 30.17881 | 31.29581 | 35865 ft | 454 kts | 309° |
| 2026-04-25 09:31 | 30.22505 | 31.24601 | 35868 ft | 455 kts | 309° |
| 2026-04-25 09:31 | 30.27145 | 31.19604 | 35885 ft | 456 kts | 309° |
| 2026-04-25 09:32 | 30.31798 | 31.14591 | 35885 ft | 457 kts | 309° |
| 2026-04-25 09:32 | 30.36446 | 31.09576 | 35888 ft | 457 kts | 309° |
| 2026-04-25 09:33 | 30.41067 | 31.04584 | 35897 ft | 457 kts | 309° |
| 2026-04-25 09:33 | 30.45718 | 30.99552 | 35886 ft | 457 kts | 309° |
| 2026-04-25 09:34 | 30.50358 | 30.94524 | 35900 ft | 458 kts | 309° |
| 2026-04-25 09:34 | 30.55025 | 30.89459 | 35871 ft | 460 kts | 309° |
| 2026-04-25 09:35 | 30.59662 | 30.84423 | 35872 ft | 460 kts | 309° |
| 2026-04-25 09:35 | 30.64330 | 30.79344 | 35876 ft | 460 kts | 309° |
| 2026-04-25 09:36 | 30.69001 | 30.74256 | 35874 ft | 460 kts | 309° |
| 2026-04-25 09:36 | 30.73667 | 30.69165 | 35883 ft | 460 kts | 309° |
| 2026-04-25 09:37 | 30.78297 | 30.64108 | 35882 ft | 460 kts | 309° |
| 2026-04-25 09:37 | 30.82957 | 30.59010 | 35877 ft | 460 kts | 309° |
| 2026-04-25 09:38 | 30.87624 | 30.53896 | 35870 ft | 461 kts | 309° |
| 2026-04-25 09:38 | 30.92288 | 30.48779 | 35876 ft | 461 kts | 309° |
| 2026-04-25 09:39 | 30.96959 | 30.43648 | 35893 ft | 461 kts | 309° |
| 2026-04-25 09:39 | 31.01594 | 30.38549 | 35908 ft | 461 kts | 309° |
| 2026-04-25 09:40 | 31.08149 | 30.30480 | 35884 ft | 449 kts | 297° |
| 2026-04-25 09:40 | 31.10868 | 30.24059 | 35878 ft | 437 kts | 283° |
| 2026-04-25 09:41 | 31.12686 | 30.17315 | 35875 ft | 436 kts | 283° |
| 2026-04-25 09:41 | 31.14528 | 30.10617 | 35909 ft | 436 kts | 283° |
| 2026-04-25 09:42 | 31.16369 | 30.03869 | 35873 ft | 436 kts | 283° |
| 2026-04-25 09:42 | 31.18377 | 29.97164 | 35888 ft | 440 kts | 288° |
| 2026-04-25 09:43 | 31.21394 | 29.90868 | 35880 ft | 449 kts | 298° |
| 2026-04-25 09:43 | 31.25072 | 29.85005 | 35879 ft | 450 kts | 299° |
| 2026-04-25 09:44 | 31.28760 | 29.79076 | 35861 ft | 452 kts | 299° |
| 2026-04-25 09:44 | 31.32464 | 29.73121 | 35871 ft | 453 kts | 299° |
| 2026-04-25 09:45 | 31.36173 | 29.67158 | 35880 ft | 454 kts | 299° |
| 2026-04-25 09:45 | 31.39863 | 29.61216 | 35879 ft | 454 kts | 299° |
| 2026-04-25 09:46 | 31.43575 | 29.55231 | 35883 ft | 455 kts | 299° |
| 2026-04-25 09:46 | 31.47289 | 29.49231 | 35885 ft | 455 kts | 300° |
| 2026-04-25 09:47 | 31.51004 | 29.43223 | 35886 ft | 455 kts | 300° |
| 2026-04-25 09:47 | 31.54684 | 29.37261 | 35889 ft | 455 kts | 300° |
| 2026-04-25 09:48 | 31.58389 | 29.31250 | 35887 ft | 454 kts | 299° |
| 2026-04-25 09:48 | 31.62083 | 29.25236 | 35885 ft | 454 kts | 299° |
| 2026-04-25 09:49 | 31.65772 | 29.19210 | 35884 ft | 455 kts | 300° |
| 2026-04-25 09:49 | 31.69436 | 29.13216 | 35864 ft | 457 kts | 300° |
| 2026-04-25 09:50 | 31.73379 | 29.07321 | 35882 ft | 464 kts | 308° |
| 2026-04-25 09:50 | 31.78275 | 29.02249 | 35893 ft | 473 kts | 315° |
| 2026-04-25 09:51 | 31.83368 | 28.97345 | 35913 ft | 473 kts | 314° |
| 2026-04-25 09:51 | 31.88459 | 28.92423 | 35923 ft | 474 kts | 314° |
| 2026-04-25 09:52 | 31.93531 | 28.87523 | 35928 ft | 475 kts | 314° |
| 2026-04-25 09:52 | 31.98635 | 28.82588 | 35929 ft | 475 kts | 314° |
| 2026-04-25 09:53 | 32.03740 | 28.77642 | 35905 ft | 476 kts | 315° |
| 2026-04-25 09:53 | 32.08853 | 28.72684 | 35903 ft | 476 kts | 315° |
| 2026-04-25 09:54 | 32.13923 | 28.67759 | 35904 ft | 476 kts | 315° |
| 2026-04-25 09:54 | 32.19035 | 28.62785 | 35903 ft | 476 kts | 315° |
| 2026-04-25 09:55 | 32.24145 | 28.57807 | 35904 ft | 476 kts | 315° |
| 2026-04-25 09:55 | 32.29246 | 28.52829 | 35904 ft | 476 kts | 315° |
| 2026-04-25 09:56 | 32.34318 | 28.47871 | 35895 ft | 477 kts | 315° |
| 2026-04-25 09:56 | 32.39428 | 28.42870 | 35898 ft | 477 kts | 315° |
| 2026-04-25 09:57 | 32.44544 | 28.37855 | 35898 ft | 478 kts | 315° |
| 2026-04-25 09:57 | 32.49664 | 28.32828 | 35900 ft | 478 kts | 315° |
| 2026-04-25 09:58 | 32.54751 | 28.27827 | 35901 ft | 478 kts | 315° |
| 2026-04-25 09:58 | 32.59870 | 28.22787 | 35901 ft | 478 kts | 315° |
| 2026-04-25 09:59 | 32.64981 | 28.17746 | 35892 ft | 478 kts | 315° |
| 2026-04-25 09:59 | 32.70098 | 28.12692 | 35898 ft | 478 kts | 315° |
| 2026-04-25 10:00 | 32.74345 | 28.08491 | 35900 ft | 478 kts | 315° |
| 2026-04-25 10:00 | 32.80282 | 28.02608 | 35884 ft | 478 kts | 315° |
| 2026-04-25 10:01 | 32.85385 | 27.97544 | 35886 ft | 478 kts | 315° |
| 2026-04-25 10:01 | 32.89631 | 27.93325 | 35901 ft | 478 kts | 315° |
| 2026-04-25 10:02 | 32.94734 | 27.88246 | 35897 ft | 478 kts | 315° |
| 2026-04-25 10:02 | 32.99842 | 27.83154 | 35877 ft | 480 kts | 315° |
| 2026-04-25 10:03 | 33.04956 | 27.78049 | 35882 ft | 480 kts | 315° |
| 2026-04-25 10:03 | 33.10910 | 27.72095 | 35890 ft | 481 kts | 315° |
| 2026-04-25 10:04 | 33.15172 | 27.67827 | 35889 ft | 481 kts | 315° |
| 2026-04-25 10:04 | 33.20296 | 27.62687 | 35887 ft | 481 kts | 315° |
| 2026-04-25 10:05 | 33.25417 | 27.57543 | 35885 ft | 481 kts | 315° |
| 2026-04-25 10:05 | 33.30503 | 27.52425 | 35876 ft | 482 kts | 315° |
| 2026-04-25 10:06 | 33.35635 | 27.47253 | 35888 ft | 482 kts | 315° |
| 2026-04-25 10:06 | 33.40768 | 27.42072 | 35868 ft | 484 kts | 315° |
| 2026-04-25 10:07 | 33.45911 | 27.36872 | 35872 ft | 484 kts | 315° |
| 2026-04-25 10:07 | 33.51023 | 27.31695 | 35874 ft | 484 kts | 315° |
| 2026-04-25 10:08 | 33.56169 | 27.26476 | 35875 ft | 484 kts | 315° |
| 2026-04-25 10:08 | 33.61311 | 27.21252 | 35863 ft | 485 kts | 315° |
| 2026-04-25 10:09 | 33.66464 | 27.16008 | 35874 ft | 486 kts | 315° |
| 2026-04-25 10:09 | 33.71590 | 27.10783 | 35864 ft | 487 kts | 315° |
| 2026-04-25 10:10 | 33.76750 | 27.05516 | 35866 ft | 487 kts | 315° |
| 2026-04-25 10:10 | 33.81911 | 27.00240 | 35867 ft | 487 kts | 315° |
| 2026-04-25 10:11 | 33.87067 | 26.94960 | 35862 ft | 487 kts | 315° |
| 2026-04-25 10:11 | 33.92224 | 26.89670 | 35857 ft | 488 kts | 315° |
| 2026-04-25 10:12 | 33.97358 | 26.84398 | 35850 ft | 488 kts | 315° |
| 2026-04-25 10:13 | 34.05282 | 26.76634 | 35852 ft | 491 kts | 318° |
| 2026-04-25 10:13 | 34.10741 | 26.71667 | 35856 ft | 491 kts | 318° |
| 2026-04-25 10:14 | 34.16138 | 26.66689 | 35859 ft | 491 kts | 318° |
| 2026-04-25 10:14 | 34.21556 | 26.61651 | 35855 ft | 493 kts | 318° |
| 2026-04-25 10:15 | 34.26987 | 26.56587 | 35856 ft | 494 kts | 318° |
| 2026-04-25 10:15 | 34.32437 | 26.51497 | 35843 ft | 495 kts | 319° |
| 2026-04-25 10:16 | 34.37888 | 26.46396 | 35855 ft | 496 kts | 319° |
| 2026-04-25 10:16 | 34.43314 | 26.41310 | 35870 ft | 497 kts | 319° |
| 2026-04-25 10:17 | 34.48775 | 26.36182 | 35870 ft | 497 kts | 319° |
| 2026-04-25 10:17 | 34.54252 | 26.31030 | 35868 ft | 499 kts | 319° |
| 2026-04-25 10:18 | 34.59735 | 26.25864 | 35889 ft | 500 kts | 319° |
| 2026-04-25 10:18 | 34.65196 | 26.20710 | 35888 ft | 501 kts | 319° |
| 2026-04-25 10:19 | 34.70713 | 26.15494 | 35908 ft | 503 kts | 319° |
| 2026-04-25 10:19 | 34.76230 | 26.10271 | 35920 ft | 503 kts | 318° |
| 2026-04-25 10:20 | 34.81781 | 26.05002 | 35883 ft | 506 kts | 319° |
| 2026-04-25 10:20 | 34.87251 | 25.99806 | 35889 ft | 500 kts | 319° |
| 2026-04-25 10:21 | 34.92753 | 25.94566 | 35906 ft | 502 kts | 319° |
| 2026-04-25 10:21 | 34.98238 | 25.89336 | 35897 ft | 500 kts | 319° |
| 2026-04-25 10:22 | 35.03709 | 25.84108 | 35904 ft | 500 kts | 319° |
| 2026-04-25 10:22 | 35.09151 | 25.78899 | 35907 ft | 500 kts | 320° |
| 2026-04-25 10:23 | 35.14625 | 25.73652 | 35920 ft | 500 kts | 320° |
| 2026-04-25 10:23 | 35.20102 | 25.68390 | 35923 ft | 501 kts | 320° |
| 2026-04-25 10:24 | 35.25581 | 25.63119 | 35946 ft | 501 kts | 320° |
| 2026-04-25 10:24 | 35.31021 | 25.57877 | 35940 ft | 501 kts | 320° |
| 2026-04-25 10:25 | 35.36495 | 25.52589 | 35945 ft | 502 kts | 320° |
| 2026-04-25 10:25 | 35.41987 | 25.47274 | 35971 ft | 506 kts | 320° |
| 2026-04-25 10:26 | 35.47519 | 25.41916 | 35986 ft | 505 kts | 320° |
| 2026-04-25 10:26 | 35.53025 | 25.36572 | 36001 ft | 505 kts | 320° |
| 2026-04-25 10:27 | 35.58505 | 25.31243 | 35944 ft | 505 kts | 320° |
| 2026-04-25 10:27 | 35.63987 | 25.25903 | 35951 ft | 499 kts | 320° |
| 2026-04-25 10:28 | 35.69436 | 25.20584 | 35949 ft | 503 kts | 320° |
| 2026-04-25 10:28 | 35.74894 | 25.15246 | 35952 ft | 504 kts | 320° |
| 2026-04-25 10:29 | 35.80349 | 25.09904 | 35956 ft | 499 kts | 320° |
| 2026-04-25 10:29 | 35.85776 | 25.04579 | 35912 ft | 497 kts | 320° |
| 2026-04-25 10:30 | 35.91160 | 24.99287 | 35931 ft | 493 kts | 320° |
| 2026-04-25 10:30 | 35.96518 | 24.94009 | 35926 ft | 491 kts | 321° |
| 2026-04-25 10:31 | 36.01810 | 24.88790 | 35933 ft | 490 kts | 320° |
| 2026-04-25 10:31 | 36.07142 | 24.83521 | 35950 ft | 491 kts | 320° |
| 2026-04-25 10:32 | 36.12478 | 24.78236 | 35928 ft | 491 kts | 320° |
| 2026-04-25 10:32 | 36.17759 | 24.72998 | 35931 ft | 490 kts | 320° |
| 2026-04-25 10:33 | 36.23069 | 24.67723 | 35933 ft | 489 kts | 320° |
| 2026-04-25 10:33 | 36.28410 | 24.62405 | 35979 ft | 493 kts | 321° |
| 2026-04-25 10:34 | 36.33742 | 24.57089 | 35982 ft | 492 kts | 320° |
| 2026-04-25 10:34 | 36.39060 | 24.51776 | 35982 ft | 494 kts | 320° |
| 2026-04-25 10:35 | 36.44398 | 24.46433 | 35986 ft | 493 kts | 320° |
| 2026-04-25 10:35 | 36.49753 | 24.41064 | 35991 ft | 494 kts | 320° |
| 2026-04-25 10:36 | 36.55099 | 24.35694 | 35999 ft | 494 kts | 321° |
| 2026-04-25 10:36 | 36.60435 | 24.30325 | 36006 ft | 493 kts | 321° |
| 2026-04-25 10:37 | 36.65732 | 24.24985 | 36014 ft | 493 kts | 321° |
| 2026-04-25 10:37 | 36.71062 | 24.19602 | 36011 ft | 493 kts | 321° |
| 2026-04-25 10:38 | 36.76384 | 24.14217 | 36003 ft | 493 kts | 321° |
| 2026-04-25 10:38 | 36.81702 | 24.08825 | 36008 ft | 492 kts | 321° |
| 2026-04-25 10:39 | 36.86984 | 24.03460 | 35989 ft | 493 kts | 321° |
| 2026-04-25 10:39 | 36.92304 | 23.98047 | 35998 ft | 493 kts | 321° |
| 2026-04-25 10:40 | 36.97623 | 23.92625 | 36004 ft | 493 kts | 321° |
| 2026-04-25 10:40 | 37.02936 | 23.87200 | 36004 ft | 493 kts | 321° |
| 2026-04-25 10:41 | 37.08213 | 23.81800 | 36019 ft | 493 kts | 321° |
| 2026-04-25 10:41 | 37.13528 | 23.76352 | 35995 ft | 494 kts | 321° |
| 2026-04-25 10:42 | 37.18839 | 23.70897 | 35995 ft | 494 kts | 321° |
| 2026-04-25 10:42 | 37.24152 | 23.65431 | 36020 ft | 494 kts | 321° |
| 2026-04-25 10:43 | 37.29426 | 23.59994 | 36012 ft | 494 kts | 321° |
| 2026-04-25 10:43 | 37.34745 | 23.54501 | 36005 ft | 495 kts | 321° |
| 2026-04-25 10:44 | 37.40058 | 23.49003 | 36026 ft | 495 kts | 321° |
| 2026-04-25 10:44 | 37.45372 | 23.43494 | 36024 ft | 495 kts | 321° |
| 2026-04-25 10:45 | 37.50684 | 23.37976 | 36023 ft | 495 kts | 321° |
| 2026-04-25 10:45 | 37.55956 | 23.32489 | 36021 ft | 495 kts | 321° |
| 2026-04-25 10:46 | 37.61260 | 23.26959 | 36010 ft | 495 kts | 321° |
| 2026-04-25 10:46 | 37.66560 | 23.21423 | 36022 ft | 495 kts | 321° |
| 2026-04-25 10:47 | 37.71876 | 23.15859 | 36484 ft | 497 kts | 322° |
| 2026-04-25 10:47 | 37.74498 | 23.13109 | 37025 ft | 495 kts | 321° |
| 2026-04-25 10:47 | 37.77146 | 23.10331 | 37548 ft | 494 kts | 322° |
| 2026-04-25 10:47 | 37.79787 | 23.07560 | 37943 ft | 496 kts | 321° |
| 2026-04-25 10:48 | 37.82440 | 23.04776 | 38031 ft | 492 kts | 321° |
| 2026-04-25 10:48 | 37.87670 | 22.99272 | 38028 ft | 490 kts | 322° |
| 2026-04-25 10:49 | 37.92899 | 22.93740 | 38029 ft | 490 kts | 320° |
| 2026-04-25 10:49 | 37.97874 | 22.87918 | 38029 ft | 491 kts | 319° |
| 2026-04-25 10:50 | 38.02927 | 22.82090 | 38037 ft | 491 kts | 319° |
| 2026-04-25 10:50 | 38.07957 | 22.76254 | 38039 ft | 490 kts | 319° |
| 2026-04-25 10:51 | 38.12975 | 22.70402 | 38042 ft | 490 kts | 319° |
| 2026-04-25 10:51 | 38.18001 | 22.64560 | 38038 ft | 489 kts | 319° |
| 2026-04-25 10:52 | 38.22988 | 22.58759 | 38033 ft | 489 kts | 319° |
| 2026-04-25 10:52 | 38.27997 | 22.52917 | 38045 ft | 488 kts | 320° |
| 2026-04-25 10:53 | 38.32999 | 22.47071 | 38040 ft | 488 kts | 319° |
| 2026-04-25 10:53 | 38.37993 | 22.41222 | 38047 ft | 487 kts | 319° |
| 2026-04-25 10:54 | 38.42947 | 22.35406 | 38044 ft | 487 kts | 319° |
| 2026-04-25 10:54 | 38.47925 | 22.29554 | 38041 ft | 487 kts | 319° |
| 2026-04-25 10:55 | 38.52902 | 22.23691 | 38042 ft | 487 kts | 319° |
| 2026-04-25 10:55 | 38.57906 | 22.17864 | 38043 ft | 486 kts | 322° |
| 2026-04-25 10:56 | 38.63143 | 22.12490 | 38029 ft | 486 kts | 323° |
| 2026-04-25 10:56 | 38.68387 | 22.07063 | 38066 ft | 485 kts | 323° |
| 2026-04-25 10:57 | 38.73638 | 22.01619 | 38056 ft | 485 kts | 323° |
| 2026-04-25 10:57 | 38.78884 | 21.96172 | 38059 ft | 485 kts | 323° |
| 2026-04-25 10:58 | 38.84089 | 21.90757 | 38054 ft | 485 kts | 323° |
| 2026-04-25 10:58 | 38.89324 | 21.85303 | 38054 ft | 484 kts | 323° |
| 2026-04-25 10:59 | 38.94549 | 21.79848 | 38049 ft | 484 kts | 323° |
| 2026-04-25 10:59 | 38.99769 | 21.74386 | 38037 ft | 483 kts | 323° |
| 2026-04-25 11:00 | 39.04982 | 21.68923 | 38046 ft | 483 kts | 323° |
| 2026-04-25 11:00 | 39.10154 | 21.63493 | 38030 ft | 484 kts | 323° |
| 2026-04-25 11:01 | 39.15377 | 21.57995 | 38052 ft | 486 kts | 323° |
| 2026-04-25 11:01 | 39.20611 | 21.52476 | 38042 ft | 486 kts | 323° |
| 2026-04-25 11:02 | 39.25845 | 21.46943 | 38049 ft | 487 kts | 323° |